createdAt,value
2022-12-06T00:01:09.244Z,102099.31
2022-12-06T00:03:37.114Z,102099.06
2022-12-06T00:06:06.828Z,102108.09
2022-12-06T00:08:33.557Z,102101.50
2022-12-06T00:11:12.772Z,102099.28
2022-12-06T00:13:41.075Z,102104.22
2022-12-06T00:16:11.877Z,102103.41
2022-12-06T00:18:41.247Z,102099.56
2022-12-06T00:21:22.389Z,102098.47
2022-12-06T00:23:52.078Z,102097.66
2022-12-06T00:26:19.922Z,102094.91
2022-12-06T00:28:46.883Z,102092.41
2022-12-06T00:31:18.696Z,102089.13
2022-12-06T00:33:45.473Z,102078.16
2022-12-06T00:36:17.963Z,102091.63
2022-12-06T00:38:45.515Z,102082.00
2022-12-06T00:41:17.585Z,102085.03
2022-12-06T00:43:45.179Z,102089.16
2022-12-06T00:46:20.138Z,102084.47
2022-12-06T00:48:48.214Z,102080.91
2022-12-06T00:51:16.702Z,102086.69
2022-12-06T00:53:46.986Z,102089.44
2022-12-06T00:56:14.060Z,102089.16
2022-12-06T00:58:40.864Z,102076.78
2022-12-06T01:01:22.735Z,102089.16
2022-12-06T01:03:52.259Z,102085.06
2022-12-06T01:06:22.798Z,102082.88
2022-12-06T01:08:49.824Z,102091.66
2022-12-06T01:11:16.694Z,102080.66
2022-12-06T01:13:43.910Z,102089.47
2022-12-06T01:16:16.040Z,102088.94
2022-12-06T01:18:43.738Z,102086.72
2022-12-06T01:21:13.515Z,102075.75
2022-12-06T01:23:40.114Z,102083.72
2022-12-06T01:26:07.787Z,102082.34
2022-12-06T01:28:34.611Z,102084.03
2022-12-06T01:31:07.403Z,102081.84
2022-12-06T01:33:34.307Z,102078.53
2022-12-06T01:36:01.066Z,102081.84
2022-12-06T01:38:27.887Z,102083.50
2022-12-06T01:40:54.727Z,102075.78
2022-12-06T01:43:34.335Z,102080.44
2022-12-06T01:46:21.731Z,102086.78
2022-12-06T01:48:52.668Z,102075.78
2022-12-06T01:51:19.768Z,102087.59
2022-12-06T01:53:49.440Z,102084.56
2022-12-06T01:56:16.341Z,102086.22
2022-12-06T01:58:45.314Z,102085.94
2022-12-06T02:01:12.082Z,102078.22
2022-12-06T02:03:39.256Z,102078.81
2022-12-06T02:06:08.404Z,102084.00
2022-12-06T02:08:36.739Z,102075.75
2022-12-06T02:11:04.456Z,102091.41
2022-12-06T02:13:33.808Z,102082.88
2022-12-06T02:16:00.465Z,102078.22
2022-12-06T02:18:41.274Z,102079.03
2022-12-06T02:21:20.879Z,102079.03
2022-12-06T02:24:18.396Z,102079.84
2022-12-06T02:26:51.968Z,102069.69
2022-12-06T02:29:24.542Z,102066.69
2022-12-06T02:32:03.357Z,102063.94
2022-12-06T02:34:33.788Z,102067.47
2022-12-06T02:37:24.490Z,102068.31
2022-12-06T02:40:15.909Z,102058.97
2022-12-06T02:42:53.895Z,102064.16
2022-12-06T02:45:27.928Z,102060.59
2022-12-06T02:47:58.258Z,102050.44
2022-12-06T02:50:31.751Z,102063.34
2022-12-06T02:53:02.177Z,102058.69
2022-12-06T02:55:30.981Z,102055.66
2022-12-06T02:57:57.728Z,102057.59
2022-12-06T03:03:11.054Z,102060.34
2022-12-06T03:05:50.048Z,102058.13
2022-12-06T03:08:31.205Z,102057.59
2022-12-06T03:11:01.273Z,102053.47
2022-12-06T03:13:39.635Z,102061.19
2022-12-06T03:16:17.447Z,102041.38
2022-12-06T03:18:53.419Z,102046.09
2022-12-06T03:21:27.774Z,102042.78
2022-12-06T03:23:55.202Z,102036.47
2022-12-06T03:26:27.811Z,102027.69
2022-12-06T03:28:58.150Z,102041.69
2022-12-06T03:31:27.705Z,102034.31
2022-12-06T03:34:02.480Z,102036.22
2022-12-06T03:36:31.909Z,102042.56
2022-12-06T03:39:02.555Z,102035.41
2022-12-06T03:41:37.390Z,102041.72
2022-12-06T03:44:04.987Z,102033.47
2022-12-06T03:46:35.844Z,102035.41
2022-12-06T03:49:10.373Z,102028.00
2022-12-06T03:51:39.444Z,102037.31
2022-12-06T03:54:07.513Z,102030.72
2022-12-06T03:56:36.800Z,102042.25
2022-12-06T03:59:11.427Z,102042.25
2022-12-06T04:01:39.386Z,102040.59
2022-12-06T04:04:06.243Z,102043.34
2022-12-06T04:06:34.155Z,102045.28
2022-12-06T04:09:19.424Z,102058.72
2022-12-06T04:11:46.290Z,102055.16
2022-12-06T04:14:13.235Z,102047.75
2022-12-06T04:17:00.457Z,102053.25
2022-12-06T04:19:27.093Z,102058.72
2022-12-06T04:22:12.144Z,102048.28
2022-12-06T04:24:38.778Z,102055.69
2022-12-06T04:27:23.960Z,102057.66
2022-12-06T04:30:09.138Z,102054.06
2022-12-06T04:32:54.033Z,102047.75
2022-12-06T04:35:39.094Z,102040.59
2022-12-06T04:38:24.539Z,102037.84
2022-12-06T04:40:51.202Z,102045.56
2022-12-06T04:43:36.394Z,102033.75
2022-12-06T04:46:03.131Z,102026.88
2022-12-06T04:48:31.002Z,102036.78
2022-12-06T04:50:57.630Z,102032.66
2022-12-06T04:53:24.337Z,102034.06
2022-12-06T04:55:53.773Z,102027.44
2022-12-06T04:58:20.362Z,102035.69
2022-12-06T05:00:47.064Z,102034.06
2022-12-06T05:03:15.041Z,102038.41
2022-12-06T05:05:42.595Z,102032.94
2022-12-06T05:08:10.154Z,102031.84
2022-12-06T05:10:37.293Z,102028.25
2022-12-06T05:13:04.414Z,102026.63
2022-12-06T05:15:31.561Z,102031.84
2022-12-06T05:17:58.383Z,102026.63
2022-12-06T05:20:25.217Z,102042.28
2022-12-06T05:22:51.906Z,102034.31
2022-12-06T05:25:20.522Z,102033.22
2022-12-06T05:27:47.234Z,102038.41
2022-12-06T05:30:14.352Z,102038.16
2022-12-06T05:32:41.005Z,102033.50
2022-12-06T05:35:08.240Z,102031.28
2022-12-06T05:37:34.940Z,102022.22
2022-12-06T05:40:02.008Z,102015.91
2022-12-06T05:42:28.928Z,102019.75
2022-12-06T05:44:55.508Z,102022.50
2022-12-06T05:47:22.179Z,102024.13
2022-12-06T05:49:48.778Z,102027.72
2022-12-06T05:52:15.520Z,102024.13
2022-12-06T05:54:42.344Z,102027.72
2022-12-06T05:57:08.921Z,102016.47
2022-12-06T05:59:35.547Z,102021.66
2022-12-06T06:02:02.328Z,102015.88
2022-12-06T06:04:29.112Z,102006.84
2022-12-06T06:06:55.831Z,102020.84
2022-12-06T06:09:23.420Z,102018.38
2022-12-06T06:11:50.046Z,102017.56
2022-12-06T06:14:16.683Z,102009.84
2022-12-06T06:16:43.747Z,102020.84
2022-12-06T06:19:10.488Z,102020.31
2022-12-06T06:21:37.111Z,102024.13
2022-12-06T06:24:03.968Z,102025.25
2022-12-06T06:26:30.697Z,102027.19
2022-12-06T06:28:57.335Z,102028.03
2022-12-06T06:31:24.008Z,102033.50
2022-12-06T06:33:50.683Z,102028.03
2022-12-06T06:36:17.362Z,102035.13
2022-12-06T06:38:44.040Z,102037.88
2022-12-06T06:41:12.348Z,102031.31
2022-12-06T06:43:38.942Z,102023.91
2022-12-06T06:46:07.226Z,102034.31
2022-12-06T06:48:36.851Z,102032.69
2022-12-06T06:51:05.865Z,102047.25
2022-12-06T06:53:33.073Z,102042.84
2022-12-06T06:55:59.676Z,102038.19
2022-12-06T06:58:26.431Z,102038.19
2022-12-06T07:00:57.892Z,102040.63
2022-12-06T07:03:25.631Z,102039.53
2022-12-06T07:05:58.902Z,102040.38
2022-12-06T07:08:27.574Z,102043.38
2022-12-06T07:10:54.706Z,102038.19
2022-12-06T07:13:22.944Z,102033.78
2022-12-06T07:15:49.923Z,102042.31
2022-12-06T07:18:19.599Z,102037.91
2022-12-06T07:20:47.942Z,102037.34
2022-12-06T07:23:15.647Z,102039.00
2022-12-06T07:25:42.273Z,102034.31
2022-12-06T07:28:09.353Z,102045.03
2022-12-06T07:30:36.054Z,102039.00
2022-12-06T07:33:02.727Z,102041.75
2022-12-06T07:35:48.567Z,102040.09
2022-12-06T07:38:16.035Z,102031.84
2022-12-06T07:43:47.711Z,102029.13
2022-12-06T07:46:14.402Z,102033.50
2022-12-06T07:48:41.019Z,102022.84
2022-12-06T07:51:08.014Z,102028.59
2022-12-06T07:53:34.792Z,102030.00
2022-12-06T07:56:08.199Z,102018.75
2022-12-06T07:58:34.871Z,102031.94
2022-12-06T08:01:04.257Z,102026.72
2022-12-06T08:03:31.291Z,102023.72
2022-12-06T08:05:58.159Z,102034.13
2022-12-06T08:08:28.455Z,102042.63
2022-12-06T08:11:00.160Z,102031.38
2022-12-06T08:13:27.008Z,102030.53
2022-12-06T08:15:53.720Z,102023.16
2022-12-06T08:18:20.526Z,102033.31
2022-12-06T08:20:47.179Z,102035.78
2022-12-06T08:23:14.039Z,102040.19
2022-12-06T08:25:40.880Z,102045.13
2022-12-06T08:28:07.507Z,102046.50
2022-12-06T08:30:34.280Z,102053.34
2022-12-06T08:33:00.998Z,102045.91
2022-12-06T08:35:27.657Z,102051.69
2022-12-06T08:37:54.358Z,102054.16
2022-12-06T08:40:21.120Z,102054.97
2022-12-06T08:42:47.812Z,102047.84
2022-12-06T08:45:14.411Z,102053.88
2022-12-06T08:47:41.075Z,102067.31
2022-12-06T08:50:08.040Z,102058.53
2022-12-06T08:52:35.037Z,102056.63
2022-12-06T08:55:01.853Z,102063.47
2022-12-06T08:57:28.498Z,102070.34
2022-12-06T08:59:55.665Z,102064.31
2022-12-06T09:02:22.306Z,102073.06
2022-12-06T09:04:51.725Z,102066.50
2022-12-06T09:07:19.043Z,102070.63
2022-12-06T09:09:46.378Z,102077.75
2022-12-06T09:12:13.722Z,102075.81
2022-12-06T09:14:40.839Z,102079.13
2022-12-06T09:17:07.605Z,102078.03
2022-12-06T09:19:34.908Z,102090.91
2022-12-06T09:22:01.855Z,102083.78
2022-12-06T09:24:28.569Z,102087.63
2022-12-06T09:26:55.312Z,102081.59
2022-12-06T09:29:22.516Z,102090.66
2022-12-06T09:31:49.432Z,102076.94
2022-12-06T09:34:17.299Z,102081.31
2022-12-06T09:36:49.681Z,102092.00
2022-12-06T09:39:18.393Z,102086.50
2022-12-06T09:42:16.012Z,102096.94
2022-12-06T09:45:10.370Z,102081.56
2022-12-06T09:47:58.479Z,102088.13
2022-12-06T09:50:28.024Z,102086.22
2022-12-06T09:53:00.372Z,102086.75
2022-12-06T09:55:41.920Z,102090.88
2022-12-06T09:58:39.334Z,102098.56
2022-12-06T10:01:24.723Z,102098.84
2022-12-06T10:04:08.037Z,102102.09
2022-12-06T10:06:44.722Z,102097.44
2022-12-06T10:09:32.300Z,102106.47
2022-12-06T10:12:36.709Z,102099.84
2022-12-06T10:15:32.638Z,102105.88
2022-12-06T10:18:17.814Z,102099.00
2022-12-06T10:21:04.863Z,102107.22
2022-12-06T10:24:01.636Z,102113.03
2022-12-06T10:26:53.306Z,102108.59
2022-12-06T10:29:29.375Z,102106.41
2022-12-06T10:31:57.018Z,102097.63
2022-12-06T10:34:49.607Z,102109.72
2022-12-06T10:37:25.773Z,102113.56
2022-12-06T10:40:12.513Z,102105.00
2022-12-06T10:42:45.218Z,102090.16
2022-12-06T10:45:41.616Z,102092.63
2022-12-06T10:48:20.950Z,102094.28
2022-12-06T10:50:55.875Z,102092.34
2022-12-06T10:53:31.916Z,102092.00
2022-12-06T10:56:07.288Z,102101.91
2022-12-06T10:58:46.572Z,102090.88
2022-12-06T11:01:26.322Z,102092.50
2022-12-06T11:04:02.420Z,102102.06
2022-12-06T11:06:49.991Z,102097.44
2022-12-06T11:09:32.183Z,102101.31
2022-12-06T11:11:59.695Z,102105.19
2022-12-06T11:14:54.482Z,102104.69
2022-12-06T11:17:24.411Z,102105.25
2022-12-06T11:19:56.872Z,102103.59
2022-12-06T11:23:11.222Z,102102.13
2022-12-06T11:26:00.342Z,102090.81
2022-12-06T11:28:38.438Z,102088.28
2022-12-06T11:31:31.259Z,102083.63
2022-12-06T11:33:59.260Z,102092.19
2022-12-06T11:36:27.177Z,102094.13
2022-12-06T11:38:53.883Z,102094.66
2022-12-06T11:41:27.884Z,102099.31
2022-12-06T11:43:56.323Z,102090.53
2022-12-06T11:46:24.234Z,102092.75
2022-12-06T11:48:51.495Z,102085.59
2022-12-06T11:51:24.411Z,102084.78
2022-12-06T11:53:54.771Z,102084.25
2022-12-06T11:56:27.528Z,102084.28
2022-12-06T11:59:08.022Z,102088.16
2022-12-06T12:01:44.582Z,102095.31
2022-12-06T12:04:26.332Z,102095.34
2022-12-06T12:07:02.742Z,102090.72
2022-12-06T12:09:35.513Z,102086.88
2022-12-06T12:12:13.044Z,102089.38
2022-12-06T12:14:43.193Z,102092.41
2022-12-06T12:17:19.411Z,102083.59
2022-12-06T12:19:59.118Z,102083.59
2022-12-06T12:22:35.809Z,102082.22
2022-12-06T12:25:27.639Z,102071.53
2022-12-06T12:27:58.945Z,102070.72
2022-12-06T12:30:53.577Z,102070.16
2022-12-06T12:33:22.993Z,102058.59
2022-12-06T12:36:04.862Z,102064.09
2022-12-06T12:38:31.429Z,102053.09
2022-12-06T12:41:19.178Z,102052.00
2022-12-06T12:47:14.006Z,102047.06
2022-12-06T12:49:41.115Z,102036.66
2022-12-06T12:52:28.309Z,102035.56
2022-12-06T12:55:21.086Z,102036.13
2022-12-06T12:57:51.955Z,102027.63
2022-12-06T13:00:24.990Z,102034.22
2022-12-06T13:03:00.939Z,102037.81
2022-12-06T13:05:39.642Z,102029.00
2022-12-06T13:08:15.887Z,102031.44
2022-12-06T13:10:47.136Z,102022.91
2022-12-06T13:13:26.484Z,102025.63
2022-12-06T13:15:56.588Z,102022.06
2022-12-06T13:18:41.375Z,102031.34
2022-12-06T13:21:27.870Z,102027.47
2022-12-06T13:24:17.545Z,102029.34
2022-12-06T13:26:55.844Z,102040.84
2022-12-06T13:29:25.613Z,102035.03
2022-12-06T13:31:54.846Z,102031.41
2022-12-06T13:34:39.263Z,102021.47
2022-12-06T13:37:29.307Z,102034.41
2022-12-06T13:39:57.114Z,102036.03
2022-12-06T13:42:45.724Z,102031.91
2022-12-06T13:45:34.553Z,102024.53
2022-12-06T13:48:01.280Z,102027.31
2022-12-06T13:50:29.342Z,102032.28
2022-12-06T13:52:55.994Z,102030.09
2022-12-06T13:55:25.539Z,102033.13
2022-12-06T13:57:55.090Z,102028.44
2022-12-06T14:00:31.017Z,102027.63
2022-12-06T14:03:19.433Z,102017.72
2022-12-06T14:06:14.728Z,102018.75
2022-12-06T14:08:59.545Z,102008.56
2022-12-06T14:11:36.627Z,102001.13
2022-12-06T14:14:15.295Z,101999.72
2022-12-06T14:16:44.068Z,102001.38
2022-12-06T14:19:18.035Z,101990.38
2022-12-06T14:22:16.847Z,101993.13
2022-12-06T14:25:07.847Z,101999.44
2022-12-06T14:27:45.795Z,101991.69
2022-12-06T14:30:22.054Z,102003.22
2022-12-06T14:32:55.029Z,101995.53
2022-12-06T14:35:36.148Z,102004.94
2022-12-06T14:38:21.426Z,102000.53
2022-12-06T14:41:07.278Z,102000.78
2022-12-06T14:43:35.395Z,101990.63
2022-12-06T14:46:05.906Z,101991.44
2022-12-06T14:48:52.260Z,101998.03
2022-12-06T14:51:25.555Z,101992.84
2022-12-06T14:53:52.256Z,101996.97
2022-12-06T14:56:30.809Z,101994.22
2022-12-06T14:58:59.331Z,101996.72
2022-12-06T15:01:28.902Z,102007.50
2022-12-06T15:04:04.183Z,102007.81
2022-12-06T15:06:33.276Z,102002.34
2022-12-06T15:08:59.895Z,102005.38
2022-12-06T15:11:48.186Z,102012.81
2022-12-06T15:14:16.946Z,102011.44
2022-12-06T15:16:54.818Z,102006.78
2022-12-06T15:19:21.621Z,102015.56
2022-12-06T15:21:55.360Z,102015.00
2022-12-06T15:24:27.287Z,102004.00
2022-12-06T15:26:54.461Z,102003.16
2022-12-06T15:29:21.843Z,102010.88
2022-12-06T15:31:51.556Z,102004.56
2022-12-06T15:34:20.840Z,102000.69
2022-12-06T15:36:48.379Z,102003.44
2022-12-06T15:39:15.164Z,102015.28
2022-12-06T15:41:42.526Z,102015.28
2022-12-06T15:44:17.870Z,102004.88
2022-12-06T15:46:45.583Z,102012.88
2022-12-06T15:49:18.186Z,102020.03
2022-12-06T15:51:46.314Z,102015.09
2022-12-06T15:54:19.061Z,102014.59
2022-12-06T15:56:47.166Z,102008.59
2022-12-06T15:59:14.539Z,102009.97
2022-12-06T16:01:49.673Z,102013.59
2022-12-06T16:04:18.733Z,102009.22
2022-12-06T16:06:46.261Z,102002.13
2022-12-06T16:09:15.386Z,102005.72
2022-12-06T16:11:42.365Z,102002.72
2022-12-06T16:14:10.083Z,102009.31
2022-12-06T16:16:43.063Z,102009.84
2022-12-06T16:19:10.565Z,102012.06
2022-12-06T16:21:51.797Z,102015.38
2022-12-06T16:24:18.462Z,102009.88
2022-12-06T16:26:45.879Z,102011.78
2022-12-06T16:29:20.599Z,101999.44
2022-12-06T16:31:47.475Z,102006.63
2022-12-06T16:34:14.813Z,102013.75
2022-12-06T16:37:13.770Z,102003.91
2022-12-06T16:39:40.480Z,102017.34
2022-12-06T16:42:07.208Z,101997.88
2022-12-06T16:44:51.149Z,102005.03
2022-12-06T16:47:18.054Z,102002.56
2022-12-06T16:49:46.835Z,102007.75
2022-12-06T16:52:15.648Z,102015.47
2022-12-06T16:54:42.579Z,102006.69
2022-12-06T16:57:11.915Z,102008.88
2022-12-06T16:59:38.657Z,102006.97
2022-12-06T17:02:23.294Z,102013.25
2022-12-06T17:04:50.029Z,102014.91
2022-12-06T17:07:16.663Z,102014.91
2022-12-06T17:09:43.493Z,102013.25
2022-12-06T17:12:15.166Z,102013.84
2022-12-06T17:14:42.143Z,102017.66
2022-12-06T17:17:17.230Z,102020.69
2022-12-06T17:19:43.928Z,102020.97
2022-12-06T17:22:11.454Z,102021.50
2022-12-06T17:24:38.688Z,102021.22
2022-12-06T17:27:07.008Z,102018.25
2022-12-06T17:29:34.331Z,102011.63
2022-12-06T17:32:01.317Z,102022.06
2022-12-06T17:34:28.083Z,102017.13
2022-12-06T17:36:56.067Z,102025.91
2022-12-06T17:39:22.806Z,102018.78
2022-12-06T17:42:08.288Z,102019.88
2022-12-06T17:44:35.222Z,102018.78
2022-12-06T17:47:02.554Z,102018.78
2022-12-06T17:49:29.300Z,102021.25
2022-12-06T17:51:56.411Z,102016.03
2022-12-06T17:54:23.311Z,102016.59
2022-12-06T17:56:54.091Z,102011.94
2022-12-06T17:59:23.638Z,102023.97
2022-12-06T18:02:14.275Z,102021.78
2022-12-06T18:04:38.723Z,102022.91
2022-12-06T18:07:05.362Z,102027.84
2022-12-06T18:09:31.986Z,102022.59
2022-12-06T18:12:01.097Z,102035.50
2022-12-06T18:14:28.324Z,102031.91
2022-12-06T18:16:55.696Z,102023.16
2022-12-06T18:19:23.325Z,102037.44
2022-12-06T18:21:52.337Z,102038.22
2022-12-06T18:24:22.739Z,102030.00
2022-12-06T18:26:51.697Z,102033.56
2022-12-06T18:29:23.427Z,102038.81
2022-12-06T18:31:51.597Z,102036.59
2022-12-06T18:34:18.604Z,102048.13
2022-12-06T18:36:45.404Z,102046.75
2022-12-06T18:39:15.880Z,102044.00
2022-12-06T18:41:46.423Z,102048.66
2022-12-06T18:44:13.743Z,102051.41
2022-12-06T18:46:42.701Z,102053.88
2022-12-06T18:49:11.214Z,102058.25
2022-12-06T18:51:41.475Z,102062.66
2022-12-06T18:54:10.810Z,102062.66
2022-12-06T18:56:37.435Z,102057.19
2022-12-06T18:59:05.953Z,102062.13
2022-12-06T19:01:35.425Z,102056.63
2022-12-06T19:04:03.920Z,102063.75
2022-12-06T19:06:33.008Z,102065.41
2022-12-06T19:09:08.160Z,102070.34
2022-12-06T19:11:40.166Z,102069.50
2022-12-06T19:14:09.047Z,102061.00
2022-12-06T19:16:40.472Z,102069.53
2022-12-06T19:19:16.507Z,102066.22
2022-12-06T19:21:45.195Z,102067.06
2022-12-06T19:24:13.176Z,102070.88
2022-12-06T19:26:41.611Z,102061.56
2022-12-06T19:29:08.670Z,102065.41
2022-12-06T19:31:35.646Z,102057.72
2022-12-06T19:34:02.302Z,102062.94
2022-12-06T19:36:30.750Z,102060.47
2022-12-06T19:39:03.121Z,102051.41
2022-12-06T19:41:30.127Z,102052.78
2022-12-06T19:44:15.392Z,102039.59
2022-12-06T19:46:44.303Z,102047.03
2022-12-06T19:49:13.061Z,102053.84
2022-12-06T19:51:44.359Z,102047.28
2022-12-06T19:54:15.478Z,102044.53
2022-12-06T19:56:42.164Z,102053.03
2022-12-06T19:59:11.781Z,102058.78
2022-12-06T20:01:40.912Z,102054.94
2022-12-06T20:04:09.597Z,102061.53
2022-12-06T20:06:36.693Z,102072.50
2022-12-06T20:09:04.237Z,102071.38
2022-12-06T20:11:49.650Z,102078.53
2022-12-06T20:14:18.278Z,102069.75
2022-12-06T20:16:45.212Z,102063.97
2022-12-06T20:19:15.473Z,102062.06
2022-12-06T20:21:42.818Z,102049.72
2022-12-06T20:24:11.188Z,102060.16
2022-12-06T20:26:38.182Z,102060.16
2022-12-06T20:29:05.093Z,102061.81
2022-12-06T20:31:32.338Z,102056.34
2022-12-06T20:34:01.324Z,102063.72
2022-12-06T20:36:30.372Z,102057.72
2022-12-06T20:38:57.475Z,102061.53
2022-12-06T20:41:26.152Z,102052.22
2022-12-06T20:43:53.436Z,102062.06
2022-12-06T20:46:25.832Z,102057.13
2022-12-06T20:48:53.110Z,102050.84
2022-12-06T20:51:25.822Z,102055.50
2022-12-06T20:53:54.192Z,102044.78
2022-12-06T20:56:22.391Z,102052.47
2022-12-06T20:58:51.951Z,102046.69
2022-12-06T21:01:23.860Z,102042.03
2022-12-06T21:03:52.365Z,102051.63
2022-12-06T21:06:20.420Z,102036.84
2022-12-06T21:08:47.671Z,102042.31
2022-12-06T21:11:23.631Z,102048.88
2022-12-06T21:13:55.044Z,102055.19
2022-12-06T21:16:32.262Z,102053.81
2022-12-06T21:19:01.991Z,102043.63
2022-12-06T21:21:32.587Z,102046.91
2022-12-06T21:24:00.845Z,102055.41
2022-12-06T21:26:29.354Z,102052.38
2022-12-06T21:28:58.435Z,102060.88
2022-12-06T21:31:34.625Z,102058.97
2022-12-06T21:34:01.918Z,102055.41
2022-12-06T21:36:28.601Z,102055.94
2022-12-06T21:38:55.781Z,102060.34
2022-12-06T21:41:22.445Z,102052.13
2022-12-06T21:43:49.544Z,102057.06
2022-12-06T21:46:21.887Z,102058.66
2022-12-06T21:48:52.724Z,102061.38
2022-12-06T21:51:20.040Z,102061.38
2022-12-06T21:53:46.796Z,102067.94
2022-12-06T21:56:17.316Z,102061.34
2022-12-06T21:58:44.738Z,102064.09
2022-12-06T22:01:16.805Z,102067.66
2022-12-06T22:03:44.650Z,102063.81
2022-12-06T22:06:13.650Z,102075.91
2022-12-06T22:08:59.083Z,102078.34
2022-12-06T22:11:38.314Z,102076.75
2022-12-06T22:14:05.474Z,102071.81
2022-12-06T22:16:33.331Z,102079.75
2022-12-06T22:19:00.057Z,102072.13
2022-12-06T22:21:28.945Z,102071.56
2022-12-06T22:23:59.670Z,102063.34
2022-12-06T22:26:28.454Z,102067.72
2022-12-06T22:28:55.353Z,102062.81
2022-12-06T22:31:31.741Z,102072.13
2022-12-06T22:34:00.676Z,102074.03
2022-12-06T22:36:28.055Z,102065.28
2022-12-06T22:38:57.128Z,102058.94
2022-12-06T22:41:24.947Z,102068.53
2022-12-06T22:43:53.730Z,102063.59
2022-12-06T22:46:21.288Z,102064.13
2022-12-06T22:48:49.540Z,102067.66
2022-12-06T22:51:19.584Z,102068.19
2022-12-06T22:53:48.853Z,102054.75
2022-12-06T22:56:15.874Z,102063.56
2022-12-06T22:58:42.881Z,102054.22
2022-12-06T23:01:18.378Z,102052.84
2022-12-06T23:03:47.073Z,102059.44
2022-12-06T23:06:16.331Z,102065.72
2022-12-06T23:08:43.653Z,102063.81
2022-12-06T23:11:22.753Z,102064.34
2022-12-06T23:13:49.676Z,102070.66
2022-12-06T23:16:22.716Z,102067.91
2022-12-06T23:18:49.504Z,102063.81
2022-12-06T23:21:17.637Z,102061.91
2022-12-06T23:23:52.570Z,102064.13
2022-12-06T23:26:24.552Z,102066.00
2022-12-06T23:28:51.604Z,102064.34
2022-12-06T23:31:24.119Z,102063.56
2022-12-06T23:33:56.291Z,102068.19
2022-12-06T23:36:27.143Z,102070.09
2022-12-06T23:38:53.931Z,102060.81
2022-12-06T23:41:23.258Z,102064.09
2022-12-06T23:43:50.400Z,102069.56
2022-12-06T23:46:22.393Z,102070.09
2022-12-06T23:48:49.980Z,102062.69
2022-12-06T23:51:19.842Z,102060.19
2022-12-06T23:53:51.240Z,102055.25
2022-12-06T23:56:19.726Z,102065.09
2022-12-06T23:58:48.770Z,102065.63
